sensor_id;sensor_type;location;lat;lon;timestamp;temperature;humidity
12111;DHT22;6119;52.372;8.990;2023-04-03T00:00:35;5.20;99.90
12111;DHT22;6119;52.372;8.990;2023-04-03T00:03:22;5.20;99.90
12111;DHT22;6119;52.372;8.990;2023-04-03T00:06:09;5.10;99.90
12111;DHT22;6119;52.372;8.990;2023-04-03T00:08:57;5.00;99.90
12111;DHT22;6119;52.372;8.990;2023-04-03T00:11:45;4.90;99.90
12111;DHT22;6119;52.372;8.990;2023-04-03T00:14:32;5.00;99.90
12111;DHT22;6119;52.372;8.990;2023-04-03T00:17:18;4.90;99.90
12111;DHT22;6119;52.372;8.990;2023-04-03T00:20:06;4.90;99.90
12111;DHT22;6119;52.372;8.990;2023-04-03T00:22:53;4.90;99.90
12111;DHT22;6119;52.372;8.990;2023-04-03T00:25:40;4.90;99.90
12111;DHT22;6119;52.372;8.990;2023-04-03T00:28:28;4.80;99.90
12111;DHT22;6119;52.372;8.990;2023-04-03T00:31:15;4.90;99.90
12111;DHT22;6119;52.372;8.990;2023-04-03T00:34:02;4.80;99.90
12111;DHT22;6119;52.372;8.990;2023-04-03T00:36:48;4.70;99.90
12111;DHT22;6119;52.372;8.990;2023-04-03T00:39:35;4.70;99.90
12111;DHT22;6119;52.372;8.990;2023-04-03T00:42:22;4.70;99.90
12111;DHT22;6119;52.372;8.990;2023-04-03T00:45:31;4.70;99.90
12111;DHT22;6119;52.372;8.990;2023-04-03T00:48:20;4.50;99.90
12111;DHT22;6119;52.372;8.990;2023-04-03T00:51:12;4.60;99.90
12111;DHT22;6119;52.372;8.990;2023-04-03T00:54:03;4.50;99.90
12111;DHT22;6119;52.372;8.990;2023-04-03T00:56:51;4.50;99.90
12111;DHT22;6119;52.372;8.990;2023-04-03T00:59:41;4.40;99.90
12111;DHT22;6119;52.372;8.990;2023-04-03T01:02:31;4.40;99.90
12111;DHT22;6119;52.372;8.990;2023-04-03T01:05:19;4.40;99.90
12111;DHT22;6119;52.372;8.990;2023-04-03T01:08:06;4.40;99.90
12111;DHT22;6119;52.372;8.990;2023-04-03T01:10:53;4.40;99.90
12111;DHT22;6119;52.372;8.990;2023-04-03T01:13:40;4.40;99.90
12111;DHT22;6119;52.372;8.990;2023-04-03T01:16:26;5.00;99.90
12111;DHT22;6119;52.372;8.990;2023-04-03T01:19:17;4.20;99.90
12111;DHT22;6119;52.372;8.990;2023-04-03T01:22:15;4.10;99.90
12111;DHT22;6119;52.372;8.990;2023-04-03T01:25:05;4.20;99.90
12111;DHT22;6119;52.372;8.990;2023-04-03T01:27:52;4.00;99.90
12111;DHT22;6119;52.372;8.990;2023-04-03T01:30:43;4.10;99.90
12111;DHT22;6119;52.372;8.990;2023-04-03T01:33:33;4.10;99.90
12111;DHT22;6119;52.372;8.990;2023-04-03T01:36:22;4.10;99.90
12111;DHT22;6119;52.372;8.990;2023-04-03T01:39:09;4.00;99.90
12111;DHT22;6119;52.372;8.990;2023-04-03T01:41:56;4.00;99.90
12111;DHT22;6119;52.372;8.990;2023-04-03T01:44:44;4.00;99.90
12111;DHT22;6119;52.372;8.990;2023-04-03T01:47:31;3.60;99.90
12111;DHT22;6119;52.372;8.990;2023-04-03T01:50:19;3.90;99.90
12111;DHT22;6119;52.372;8.990;2023-04-03T01:53:05;3.90;99.90
12111;DHT22;6119;52.372;8.990;2023-04-03T01:55:52;3.80;99.90
12111;DHT22;6119;52.372;8.990;2023-04-03T01:58:38;3.80;99.90
12111;DHT22;6119;52.372;8.990;2023-04-03T02:01:25;3.70;99.90
12111;DHT22;6119;52.372;8.990;2023-04-03T02:04:12;3.80;99.90
12111;DHT22;6119;52.372;8.990;2023-04-03T02:07:00;3.60;99.90
12111;DHT22;6119;52.372;8.990;2023-04-03T02:09:47;3.50;99.90
12111;DHT22;6119;52.372;8.990;2023-04-03T02:12:33;3.50;99.90
12111;DHT22;6119;52.372;8.990;2023-04-03T02:15:20;3.40;99.90
12111;DHT22;6119;52.372;8.990;2023-04-03T02:18:06;3.50;99.90
12111;DHT22;6119;52.372;8.990;2023-04-03T02:20:53;3.30;99.90
12111;DHT22;6119;52.372;8.990;2023-04-03T02:23:41;3.40;99.90
12111;DHT22;6119;52.372;8.990;2023-04-03T02:26:27;3.30;99.90
12111;DHT22;6119;52.372;8.990;2023-04-03T02:29:13;3.30;99.90
12111;DHT22;6119;52.372;8.990;2023-04-03T02:32:00;3.30;99.90
12111;DHT22;6119;52.372;8.990;2023-04-03T02:34:47;3.30;99.90
12111;DHT22;6119;52.372;8.990;2023-04-03T02:37:33;3.20;99.90
12111;DHT22;6119;52.372;8.990;2023-04-03T02:40:22;3.20;99.90
12111;DHT22;6119;52.372;8.990;2023-04-03T02:43:08;3.10;99.90
12111;DHT22;6119;52.372;8.990;2023-04-03T02:45:55;3.10;99.90
12111;DHT22;6119;52.372;8.990;2023-04-03T02:48:41;3.10;99.90
12111;DHT22;6119;52.372;8.990;2023-04-03T02:51:28;3.10;99.90
12111;DHT22;6119;52.372;8.990;2023-04-03T02:54:14;3.10;99.90
12111;DHT22;6119;52.372;8.990;2023-04-03T02:57:02;3.10;99.90
12111;DHT22;6119;52.372;8.990;2023-04-03T02:59:49;3.00;99.90
12111;DHT22;6119;52.372;8.990;2023-04-03T03:02:35;3.10;99.90
12111;DHT22;6119;52.372;8.990;2023-04-03T03:05:21;3.00;99.90
12111;DHT22;6119;52.372;8.990;2023-04-03T03:08:08;3.00;99.90
12111;DHT22;6119;52.372;8.990;2023-04-03T03:10:54;3.00;99.90
12111;DHT22;6119;52.372;8.990;2023-04-03T03:13:42;2.90;99.90
12111;DHT22;6119;52.372;8.990;2023-04-03T03:16:29;2.80;99.90
12111;DHT22;6119;52.372;8.990;2023-04-03T03:19:16;2.90;99.90
12111;DHT22;6119;52.372;8.990;2023-04-03T03:22:02;3.00;99.90
12111;DHT22;6119;52.372;8.990;2023-04-03T03:24:48;2.90;99.90
12111;DHT22;6119;52.372;8.990;2023-04-03T03:27:35;2.80;99.90
12111;DHT22;6119;52.372;8.990;2023-04-03T03:30:23;2.80;99.90
12111;DHT22;6119;52.372;8.990;2023-04-03T03:33:09;2.80;99.90
12111;DHT22;6119;52.372;8.990;2023-04-03T03:35:56;2.80;99.90
12111;DHT22;6119;52.372;8.990;2023-04-03T03:38:43;2.80;99.90
12111;DHT22;6119;52.372;8.990;2023-04-03T03:41:29;2.80;99.90
12111;DHT22;6119;52.372;8.990;2023-04-03T03:44:16;2.80;99.90
12111;DHT22;6119;52.372;8.990;2023-04-03T03:47:04;2.80;99.90
12111;DHT22;6119;52.372;8.990;2023-04-03T03:49:51;2.80;99.90
12111;DHT22;6119;52.372;8.990;2023-04-03T03:52:37;2.70;99.90
12111;DHT22;6119;52.372;8.990;2023-04-03T03:55:24;2.70;99.90
12111;DHT22;6119;52.372;8.990;2023-04-03T03:58:11;2.80;99.90
12111;DHT22;6119;52.372;8.990;2023-04-03T04:01:00;2.70;99.90
12111;DHT22;6119;52.372;8.990;2023-04-03T04:03:49;2.70;99.90
12111;DHT22;6119;52.372;8.990;2023-04-03T04:06:36;2.70;99.90
12111;DHT22;6119;52.372;8.990;2023-04-03T04:09:22;2.70;99.90
12111;DHT22;6119;52.372;8.990;2023-04-03T04:12:09;2.60;99.90
12111;DHT22;6119;52.372;8.990;2023-04-03T04:14:55;2.60;99.90
12111;DHT22;6119;52.372;8.990;2023-04-03T04:17:41;2.40;99.90
12111;DHT22;6119;52.372;8.990;2023-04-03T04:20:29;2.50;99.90
12111;DHT22;6119;52.372;8.990;2023-04-03T04:23:16;2.50;99.90
12111;DHT22;6119;52.372;8.990;2023-04-03T04:26:03;2.40;99.90
12111;DHT22;6119;52.372;8.990;2023-04-03T04:28:50;2.40;99.90
12111;DHT22;6119;52.372;8.990;2023-04-03T04:31:36;2.40;99.90
12111;DHT22;6119;52.372;8.990;2023-04-03T04:34:23;2.40;99.90
12111;DHT22;6119;52.372;8.990;2023-04-03T04:37:11;2.40;99.90
12111;DHT22;6119;52.372;8.990;2023-04-03T04:39:57;2.30;99.90
12111;DHT22;6119;52.372;8.990;2023-04-03T04:42:43;2.30;99.90
12111;DHT22;6119;52.372;8.990;2023-04-03T04:45:30;2.40;99.90
12111;DHT22;6119;52.372;8.990;2023-04-03T04:48:16;2.20;99.90
12111;DHT22;6119;52.372;8.990;2023-04-03T04:51:03;2.20;99.90
12111;DHT22;6119;52.372;8.990;2023-04-03T04:53:52;2.30;99.90
12111;DHT22;6119;52.372;8.990;2023-04-03T04:56:40;2.30;99.90
12111;DHT22;6119;52.372;8.990;2023-04-03T04:59:26;2.30;99.90
12111;DHT22;6119;52.372;8.990;2023-04-03T05:02:13;2.30;99.90
12111;DHT22;6119;52.372;8.990;2023-04-03T05:05:00;2.30;99.90
12111;DHT22;6119;52.372;8.990;2023-04-03T05:07:50;2.30;99.90
12111;DHT22;6119;52.372;8.990;2023-04-03T05:10:38;2.30;99.90
12111;DHT22;6119;52.372;8.990;2023-04-03T05:13:26;2.30;99.90
12111;DHT22;6119;52.372;8.990;2023-04-03T05:16:12;2.20;99.90
12111;DHT22;6119;52.372;8.990;2023-04-03T05:18:59;2.20;99.90
12111;DHT22;6119;52.372;8.990;2023-04-03T05:21:45;2.30;99.90
12111;DHT22;6119;52.372;8.990;2023-04-03T05:24:32;2.20;99.90
12111;DHT22;6119;52.372;8.990;2023-04-03T05:27:20;2.20;99.90
12111;DHT22;6119;52.372;8.990;2023-04-03T05:30:09;2.20;99.90
12111;DHT22;6119;52.372;8.990;2023-04-03T05:32:56;2.10;99.90
12111;DHT22;6119;52.372;8.990;2023-04-03T05:35:42;2.20;99.90
12111;DHT22;6119;52.372;8.990;2023-04-03T05:38:29;2.20;99.90
12111;DHT22;6119;52.372;8.990;2023-04-03T05:41:16;2.20;99.90
12111;DHT22;6119;52.372;8.990;2023-04-03T05:44:04;2.20;99.90
12111;DHT22;6119;52.372;8.990;2023-04-03T05:46:50;2.20;99.90
12111;DHT22;6119;52.372;8.990;2023-04-03T05:49:37;2.20;99.90
12111;DHT22;6119;52.372;8.990;2023-04-03T05:52:28;2.10;99.90
12111;DHT22;6119;52.372;8.990;2023-04-03T05:55:16;2.30;99.90
12111;DHT22;6119;52.372;8.990;2023-04-03T05:58:02;2.20;99.90
12111;DHT22;6119;52.372;8.990;2023-04-03T06:00:50;2.30;99.90
12111;DHT22;6119;52.372;8.990;2023-04-03T06:03:36;2.30;99.90
12111;DHT22;6119;52.372;8.990;2023-04-03T06:06:25;2.30;99.90
12111;DHT22;6119;52.372;8.990;2023-04-03T06:09:12;2.40;99.90
12111;DHT22;6119;52.372;8.990;2023-04-03T06:11:59;2.40;99.90
12111;DHT22;6119;52.372;8.990;2023-04-03T06:14:46;2.50;99.90
12111;DHT22;6119;52.372;8.990;2023-04-03T06:17:34;2.50;99.90
12111;DHT22;6119;52.372;8.990;2023-04-03T06:20:21;2.50;99.90
12111;DHT22;6119;52.372;8.990;2023-04-03T06:23:08;2.50;99.90
12111;DHT22;6119;52.372;8.990;2023-04-03T06:25:55;2.50;99.90
12111;DHT22;6119;52.372;8.990;2023-04-03T06:28:41;2.60;99.90
12111;DHT22;6119;52.372;8.990;2023-04-03T06:31:28;2.70;99.90
12111;DHT22;6119;52.372;8.990;2023-04-03T06:34:17;2.70;99.90
12111;DHT22;6119;52.372;8.990;2023-04-03T06:37:03;2.80;99.90
12111;DHT22;6119;52.372;8.990;2023-04-03T06:39:50;2.70;99.90
12111;DHT22;6119;52.372;8.990;2023-04-03T06:42:36;2.70;99.90
12111;DHT22;6119;52.372;8.990;2023-04-03T06:45:22;2.80;99.90
12111;DHT22;6119;52.372;8.990;2023-04-03T06:48:10;2.90;99.90
12111;DHT22;6119;52.372;8.990;2023-04-03T06:50:59;2.90;99.90
12111;DHT22;6119;52.372;8.990;2023-04-03T06:53:45;2.90;99.90
12111;DHT22;6119;52.372;8.990;2023-04-03T06:56:32;3.00;99.90
12111;DHT22;6119;52.372;8.990;2023-04-03T06:59:19;3.00;99.90
12111;DHT22;6119;52.372;8.990;2023-04-03T07:02:06;3.10;99.90
12111;DHT22;6119;52.372;8.990;2023-04-03T07:04:52;3.30;99.90
12111;DHT22;6119;52.372;8.990;2023-04-03T07:07:41;3.30;99.90
12111;DHT22;6119;52.372;8.990;2023-04-03T07:10:27;3.30;99.90
12111;DHT22;6119;52.372;8.990;2023-04-03T07:13:14;3.40;99.90
12111;DHT22;6119;52.372;8.990;2023-04-03T07:16:01;3.50;99.90
12111;DHT22;6119;52.372;8.990;2023-04-03T07:18:49;3.60;99.90
12111;DHT22;6119;52.372;8.990;2023-04-03T07:21:36;3.70;99.90
12111;DHT22;6119;52.372;8.990;2023-04-03T07:24:24;3.80;99.90
12111;DHT22;6119;52.372;8.990;2023-04-03T07:27:11;3.80;99.90
12111;DHT22;6119;52.372;8.990;2023-04-03T07:29:58;4.00;99.90
12111;DHT22;6119;52.372;8.990;2023-04-03T07:32:45;4.00;99.90
12111;DHT22;6119;52.372;8.990;2023-04-03T07:35:32;4.10;99.90
12111;DHT22;6119;52.372;8.990;2023-04-03T07:38:18;4.10;99.90
12111;DHT22;6119;52.372;8.990;2023-04-03T07:41:06;4.30;99.90
12111;DHT22;6119;52.372;8.990;2023-04-03T07:43:53;4.40;99.90
12111;DHT22;6119;52.372;8.990;2023-04-03T07:46:40;4.40;99.90
12111;DHT22;6119;52.372;8.990;2023-04-03T07:49:27;4.50;99.90
12111;DHT22;6119;52.372;8.990;2023-04-03T07:52:14;4.60;99.90
12111;DHT22;6119;52.372;8.990;2023-04-03T07:55:01;4.60;99.90
12111;DHT22;6119;52.372;8.990;2023-04-03T07:57:48;4.70;99.90
12111;DHT22;6119;52.372;8.990;2023-04-03T08:00:36;4.80;99.90
12111;DHT22;6119;52.372;8.990;2023-04-03T08:03:22;4.90;99.90
12111;DHT22;6119;52.372;8.990;2023-04-03T08:06:10;4.90;99.90
12111;DHT22;6119;52.372;8.990;2023-04-03T08:09:02;5.10;99.90
12111;DHT22;6119;52.372;8.990;2023-04-03T08:11:49;5.10;99.90
12111;DHT22;6119;52.372;8.990;2023-04-03T08:14:39;5.20;99.90
12111;DHT22;6119;52.372;8.990;2023-04-03T08:17:26;5.20;99.90
12111;DHT22;6119;52.372;8.990;2023-04-03T08:20:13;5.30;99.90
12111;DHT22;6119;52.372;8.990;2023-04-03T08:22:59;5.40;99.90
12111;DHT22;6119;52.372;8.990;2023-04-03T08:25:46;5.40;99.90
12111;DHT22;6119;52.372;8.990;2023-04-03T08:28:33;5.40;99.90
12111;DHT22;6119;52.372;8.990;2023-04-03T08:31:21;5.60;99.90
12111;DHT22;6119;52.372;8.990;2023-04-03T08:34:08;5.70;99.90
12111;DHT22;6119;52.372;8.990;2023-04-03T08:36:55;5.70;99.90
12111;DHT22;6119;52.372;8.990;2023-04-03T08:39:42;5.90;99.90
12111;DHT22;6119;52.372;8.990;2023-04-03T08:42:39;6.00;99.90
12111;DHT22;6119;52.372;8.990;2023-04-03T08:45:37;6.10;99.90
12111;DHT22;6119;52.372;8.990;2023-04-03T08:48:32;6.20;99.90
12111;DHT22;6119;52.372;8.990;2023-04-03T08:51:20;6.20;99.90
12111;DHT22;6119;52.372;8.990;2023-04-03T08:54:20;6.30;99.90
12111;DHT22;6119;52.372;8.990;2023-04-03T08:57:10;6.30;99.90
12111;DHT22;6119;52.372;8.990;2023-04-03T09:00:00;6.50;99.90
12111;DHT22;6119;52.372;8.990;2023-04-03T09:02:51;6.50;99.90
12111;DHT22;6119;52.372;8.990;2023-04-03T09:05:42;6.60;99.90
12111;DHT22;6119;52.372;8.990;2023-04-03T09:08:34;6.80;99.90
12111;DHT22;6119;52.372;8.990;2023-04-03T09:11:25;6.90;99.90
12111;DHT22;6119;52.372;8.990;2023-04-03T09:14:17;6.90;99.90
12111;DHT22;6119;52.372;8.990;2023-04-03T09:17:14;7.10;99.90
12111;DHT22;6119;52.372;8.990;2023-04-03T09:20:09;7.20;99.90
12111;DHT22;6119;52.372;8.990;2023-04-03T09:23:08;7.30;99.90
12111;DHT22;6119;52.372;8.990;2023-04-03T09:26:02;7.40;99.90
12111;DHT22;6119;52.372;8.990;2023-04-03T09:28:50;7.60;99.90
12111;DHT22;6119;52.372;8.990;2023-04-03T09:31:39;7.60;99.90
12111;DHT22;6119;52.372;8.990;2023-04-03T09:34:28;7.70;99.90
12111;DHT22;6119;52.372;8.990;2023-04-03T09:37:38;7.50;99.90
12111;DHT22;6119;52.372;8.990;2023-04-03T09:40:35;7.50;99.90
12111;DHT22;6119;52.372;8.990;2023-04-03T09:43:29;8.00;99.90
12111;DHT22;6119;52.372;8.990;2023-04-03T09:46:24;8.10;99.90
12111;DHT22;6119;52.372;8.990;2023-04-03T09:49:12;8.20;99.90
12111;DHT22;6119;52.372;8.990;2023-04-03T09:52:18;8.40;99.90
12111;DHT22;6119;52.372;8.990;2023-04-03T09:55:06;8.50;99.80
12111;DHT22;6119;52.372;8.990;2023-04-03T09:57:57;8.70;99.80
12111;DHT22;6119;52.372;8.990;2023-04-03T10:00:54;8.70;99.30
12111;DHT22;6119;52.372;8.990;2023-04-03T10:03:41;8.90;98.30
12111;DHT22;6119;52.372;8.990;2023-04-03T10:06:34;9.10;98.00
12111;DHT22;6119;52.372;8.990;2023-04-03T10:09:23;9.40;98.00
12111;DHT22;6119;52.372;8.990;2023-04-03T10:12:11;9.50;96.60
12111;DHT22;6119;52.372;8.990;2023-04-03T10:15:01;9.80;97.80
12111;DHT22;6119;52.372;8.990;2023-04-03T10:17:53;9.90;97.50
12111;DHT22;6119;52.372;8.990;2023-04-03T10:20:44;9.70;97.20
12111;DHT22;6119;52.372;8.990;2023-04-03T10:23:41;9.60;97.00
12111;DHT22;6119;52.372;8.990;2023-04-03T10:26:39;9.80;96.50
12111;DHT22;6119;52.372;8.990;2023-04-03T10:29:38;9.20;95.40
12111;DHT22;6119;52.372;8.990;2023-04-03T10:32:45;8.70;97.50
12111;DHT22;6119;52.372;8.990;2023-04-03T10:35:43;8.50;98.20
12111;DHT22;6119;52.372;8.990;2023-04-03T10:38:38;8.50;98.20
12111;DHT22;6119;52.372;8.990;2023-04-03T10:41:35;8.30;97.90
12111;DHT22;6119;52.372;8.990;2023-04-03T10:44:31;8.20;98.60
12111;DHT22;6119;52.372;8.990;2023-04-03T10:47:26;8.00;98.40
12111;DHT22;6119;52.372;8.990;2023-04-03T10:50:29;7.80;98.60
12111;DHT22;6119;52.372;8.990;2023-04-03T10:53:23;7.80;97.90
12111;DHT22;6119;52.372;8.990;2023-04-03T10:56:15;7.80;98.20
12111;DHT22;6119;52.372;8.990;2023-04-03T10:59:16;8.50;99.20
12111;DHT22;6119;52.372;8.990;2023-04-03T11:02:07;8.90;98.30
12111;DHT22;6119;52.372;8.990;2023-04-03T11:05:02;9.50;97.60
12111;DHT22;6119;52.372;8.990;2023-04-03T11:07:52;9.80;97.00
12111;DHT22;6119;52.372;8.990;2023-04-03T11:10:42;9.80;96.70
12111;DHT22;6119;52.372;8.990;2023-04-03T11:13:34;9.50;96.70
12111;DHT22;6119;52.372;8.990;2023-04-03T11:16:24;9.40;96.50
12111;DHT22;6119;52.372;8.990;2023-04-03T11:19:17;9.40;96.90
12111;DHT22;6119;52.372;8.990;2023-04-03T11:22:12;9.10;95.70
12111;DHT22;6119;52.372;8.990;2023-04-03T11:25:08;9.60;95.50
12111;DHT22;6119;52.372;8.990;2023-04-03T11:27:57;10.00;93.50
12111;DHT22;6119;52.372;8.990;2023-04-03T11:30:49;9.70;95.00
12111;DHT22;6119;52.372;8.990;2023-04-03T11:33:47;9.40;94.30
12111;DHT22;6119;52.372;8.990;2023-04-03T11:36:40;9.30;94.30
12111;DHT22;6119;52.372;8.990;2023-04-03T11:39:31;9.60;94.40
12111;DHT22;6119;52.372;8.990;2023-04-03T11:42:28;10.40;94.00
12111;DHT22;6119;52.372;8.990;2023-04-03T11:45:29;10.90;94.30
12111;DHT22;6119;52.372;8.990;2023-04-03T11:48:50;10.70;92.70
12111;DHT22;6119;52.372;8.990;2023-04-03T11:51:42;10.40;93.40
12111;DHT22;6119;52.372;8.990;2023-04-03T11:54:47;10.40;92.90
12111;DHT22;6119;52.372;8.990;2023-04-03T12:00:59;9.70;92.20
12111;DHT22;6119;52.372;8.990;2023-04-03T12:04:04;9.50;93.60
12111;DHT22;6119;52.372;8.990;2023-04-03T12:07:15;9.50;94.50
12111;DHT22;6119;52.372;8.990;2023-04-03T12:10:16;9.30;93.40
12111;DHT22;6119;52.372;8.990;2023-04-03T12:13:18;9.10;93.90
12111;DHT22;6119;52.372;8.990;2023-04-03T12:16:06;9.00;94.50
12111;DHT22;6119;52.372;8.990;2023-04-03T12:19:01;9.60;94.80
12111;DHT22;6119;52.372;8.990;2023-04-03T12:22:07;10.20;93.00
12111;DHT22;6119;52.372;8.990;2023-04-03T12:24:54;10.50;92.40
12111;DHT22;6119;52.372;8.990;2023-04-03T12:27:42;10.70;92.10
12111;DHT22;6119;52.372;8.990;2023-04-03T12:30:30;11.00;91.00
12111;DHT22;6119;52.372;8.990;2023-04-03T12:33:27;11.20;90.50
12111;DHT22;6119;52.372;8.990;2023-04-03T12:36:28;11.00;90.70
12111;DHT22;6119;52.372;8.990;2023-04-03T12:39:33;10.90;91.10
12111;DHT22;6119;52.372;8.990;2023-04-03T12:42:48;11.30;92.40
12111;DHT22;6119;52.372;8.990;2023-04-03T12:45:44;11.50;91.80
12111;DHT22;6119;52.372;8.990;2023-04-03T12:48:37;11.80;92.60
12111;DHT22;6119;52.372;8.990;2023-04-03T12:51:30;12.00;92.20
12111;DHT22;6119;52.372;8.990;2023-04-03T12:54:23;12.40;90.60
12111;DHT22;6119;52.372;8.990;2023-04-03T12:57:15;12.40;90.70
12111;DHT22;6119;52.372;8.990;2023-04-03T13:00:19;12.40;88.90
12111;DHT22;6119;52.372;8.990;2023-04-03T13:03:21;12.20;90.20
12111;DHT22;6119;52.372;8.990;2023-04-03T13:06:17;12.40;90.50
12111;DHT22;6119;52.372;8.990;2023-04-03T13:09:05;12.40;90.90
12111;DHT22;6119;52.372;8.990;2023-04-03T13:11:56;12.80;88.60
12111;DHT22;6119;52.372;8.990;2023-04-03T13:14:52;13.10;88.30
12111;DHT22;6119;52.372;8.990;2023-04-03T13:17:41;13.30;89.10
12111;DHT22;6119;52.372;8.990;2023-04-03T13:20:33;12.80;84.30
12111;DHT22;6119;52.372;8.990;2023-04-03T13:23:22;12.30;86.20
12111;DHT22;6119;52.372;8.990;2023-04-03T13:26:08;12.60;85.60
12111;DHT22;6119;52.372;8.990;2023-04-03T13:28:57;12.70;86.30
12111;DHT22;6119;52.372;8.990;2023-04-03T13:31:45;12.80;85.20
12111;DHT22;6119;52.372;8.990;2023-04-03T13:34:37;12.60;84.50
12111;DHT22;6119;52.372;8.990;2023-04-03T13:37:28;12.30;88.00
12111;DHT22;6119;52.372;8.990;2023-04-03T13:40:14;11.70;86.20
12111;DHT22;6119;52.372;8.990;2023-04-03T13:43:04;10.70;85.30
12111;DHT22;6119;52.372;8.990;2023-04-03T13:46:03;10.90;85.80
12111;DHT22;6119;52.372;8.990;2023-04-03T13:48:52;11.30;85.80
12111;DHT22;6119;52.372;8.990;2023-04-03T13:51:39;11.70;85.10
12111;DHT22;6119;52.372;8.990;2023-04-03T13:54:31;12.20;84.90
12111;DHT22;6119;52.372;8.990;2023-04-03T13:57:18;12.30;84.50
12111;DHT22;6119;52.372;8.990;2023-04-03T14:00:28;12.60;87.00
12111;DHT22;6119;52.372;8.990;2023-04-03T14:03:19;12.80;87.70
12111;DHT22;6119;52.372;8.990;2023-04-03T14:06:09;12.90;86.20
12111;DHT22;6119;52.372;8.990;2023-04-03T14:08:56;12.90;84.90
12111;DHT22;6119;52.372;8.990;2023-04-03T14:11:44;12.90;81.80
12111;DHT22;6119;52.372;8.990;2023-04-03T14:14:33;13.00;82.40
12111;DHT22;6119;52.372;8.990;2023-04-03T14:17:22;13.10;82.50
12111;DHT22;6119;52.372;8.990;2023-04-03T14:20:15;13.30;83.20
12111;DHT22;6119;52.372;8.990;2023-04-03T14:23:02;13.30;79.60
12111;DHT22;6119;52.372;8.990;2023-04-03T14:25:48;12.80;79.00
12111;DHT22;6119;52.372;8.990;2023-04-03T14:28:36;13.40;80.90
12111;DHT22;6119;52.372;8.990;2023-04-03T14:31:28;13.20;80.90
12111;DHT22;6119;52.372;8.990;2023-04-03T14:34:15;13.30;79.60
12111;DHT22;6119;52.372;8.990;2023-04-03T14:37:02;13.60;79.90
12111;DHT22;6119;52.372;8.990;2023-04-03T14:39:50;13.60;81.80
12111;DHT22;6119;52.372;8.990;2023-04-03T14:42:37;13.80;80.40
12111;DHT22;6119;52.372;8.990;2023-04-03T14:45:25;13.60;81.60
12111;DHT22;6119;52.372;8.990;2023-04-03T14:48:17;13.50;80.30
12111;DHT22;6119;52.372;8.990;2023-04-03T14:51:04;13.60;77.70
12111;DHT22;6119;52.372;8.990;2023-04-03T14:53:51;13.20;79.40
12111;DHT22;6119;52.372;8.990;2023-04-03T14:56:39;13.40;79.20
12111;DHT22;6119;52.372;8.990;2023-04-03T14:59:26;13.00;78.60
12111;DHT22;6119;52.372;8.990;2023-04-03T15:02:26;12.90;77.80
12111;DHT22;6119;52.372;8.990;2023-04-03T15:05:14;12.90;78.20
12111;DHT22;6119;52.372;8.990;2023-04-03T15:08:01;12.30;78.40
12111;DHT22;6119;52.372;8.990;2023-04-03T15:10:48;12.10;79.80
12111;DHT22;6119;52.372;8.990;2023-04-03T15:13:35;11.90;80.10
12111;DHT22;6119;52.372;8.990;2023-04-03T15:16:22;11.40;80.10
12111;DHT22;6119;52.372;8.990;2023-04-03T15:19:11;11.30;80.90
12111;DHT22;6119;52.372;8.990;2023-04-03T15:21:58;11.70;80.90
12111;DHT22;6119;52.372;8.990;2023-04-03T15:24:45;12.50;81.90
12111;DHT22;6119;52.372;8.990;2023-04-03T15:27:33;12.70;80.80
12111;DHT22;6119;52.372;8.990;2023-04-03T15:30:20;12.90;77.80
12111;DHT22;6119;52.372;8.990;2023-04-03T15:33:07;13.00;78.10
12111;DHT22;6119;52.372;8.990;2023-04-03T15:35:56;13.10;77.50
12111;DHT22;6119;52.372;8.990;2023-04-03T15:38:52;12.80;78.50
12111;DHT22;6119;52.372;8.990;2023-04-03T15:41:38;12.30;79.70
12111;DHT22;6119;52.372;8.990;2023-04-03T15:44:25;12.00;77.50
12111;DHT22;6119;52.372;8.990;2023-04-03T15:47:12;11.50;78.30
12111;DHT22;6119;52.372;8.990;2023-04-03T15:49:59;11.60;80.40
12111;DHT22;6119;52.372;8.990;2023-04-03T15:52:47;11.80;79.60
12111;DHT22;6119;52.372;8.990;2023-04-03T15:55:37;12.40;80.40
12111;DHT22;6119;52.372;8.990;2023-04-03T15:58:24;12.60;78.40
12111;DHT22;6119;52.372;8.990;2023-04-03T16:01:11;12.80;79.80
12111;DHT22;6119;52.372;8.990;2023-04-03T16:03:58;12.00;78.00
12111;DHT22;6119;52.372;8.990;2023-04-03T16:06:44;11.60;78.40
12111;DHT22;6119;52.372;8.990;2023-04-03T16:09:33;11.30;79.30
12111;DHT22;6119;52.372;8.990;2023-04-03T16:12:21;11.60;80.60
12111;DHT22;6119;52.372;8.990;2023-04-03T16:15:08;12.00;80.20
12111;DHT22;6119;52.372;8.990;2023-04-03T16:17:55;12.30;78.90
12111;DHT22;6119;52.372;8.990;2023-04-03T16:20:42;12.70;77.20
12111;DHT22;6119;52.372;8.990;2023-04-03T16:23:29;12.90;78.00
12111;DHT22;6119;52.372;8.990;2023-04-03T16:26:17;12.90;76.90
12111;DHT22;6119;52.372;8.990;2023-04-03T16:29:04;12.90;75.20
12111;DHT22;6119;52.372;8.990;2023-04-03T16:31:50;12.90;75.80
12111;DHT22;6119;52.372;8.990;2023-04-03T16:34:37;12.60;76.90
12111;DHT22;6119;52.372;8.990;2023-04-03T16:37:26;12.30;77.30
12111;DHT22;6119;52.372;8.990;2023-04-03T16:40:16;12.00;78.00
12111;DHT22;6119;52.372;8.990;2023-04-03T16:43:04;11.50;77.70
12111;DHT22;6119;52.372;8.990;2023-04-03T16:45:50;11.30;78.10
12111;DHT22;6119;52.372;8.990;2023-04-03T16:48:37;11.30;79.60
12111;DHT22;6119;52.372;8.990;2023-04-03T16:51:24;11.50;80.00
12111;DHT22;6119;52.372;8.990;2023-04-03T16:54:10;12.00;80.50
12111;DHT22;6119;52.372;8.990;2023-04-03T16:56:58;12.10;80.10
12111;DHT22;6119;52.372;8.990;2023-04-03T16:59:46;12.40;78.50
12111;DHT22;6119;52.372;8.990;2023-04-03T17:02:33;12.50;79.40
12111;DHT22;6119;52.372;8.990;2023-04-03T17:05:19;12.70;78.00
12111;DHT22;6119;52.372;8.990;2023-04-03T17:08:06;12.80;78.40
12111;DHT22;6119;52.372;8.990;2023-04-03T17:10:53;12.60;76.70
12111;DHT22;6119;52.372;8.990;2023-04-03T17:13:40;12.60;77.60
12111;DHT22;6119;52.372;8.990;2023-04-03T17:16:29;12.80;78.40
12111;DHT22;6119;52.372;8.990;2023-04-03T17:19:16;12.70;77.60
12111;DHT22;6119;52.372;8.990;2023-04-03T17:22:03;12.50;77.30
12111;DHT22;6119;52.372;8.990;2023-04-03T17:24:49;12.30;77.80
12111;DHT22;6119;52.372;8.990;2023-04-03T17:27:36;12.10;79.20
12111;DHT22;6119;52.372;8.990;2023-04-03T17:30:22;11.60;79.70
12111;DHT22;6119;52.372;8.990;2023-04-03T17:33:10;11.10;80.00
12111;DHT22;6119;52.372;8.990;2023-04-03T17:35:57;11.00;80.20
12111;DHT22;6119;52.372;8.990;2023-04-03T17:38:45;10.90;81.40
12111;DHT22;6119;52.372;8.990;2023-04-03T17:41:33;10.50;82.70
12111;DHT22;6119;52.372;8.990;2023-04-03T17:44:19;10.40;83.30
12111;DHT22;6119;52.372;8.990;2023-04-03T17:47:06;10.30;83.30
12111;DHT22;6119;52.372;8.990;2023-04-03T17:49:54;10.20;84.50
12111;DHT22;6119;52.372;8.990;2023-04-03T17:52:41;10.20;85.20
12111;DHT22;6119;52.372;8.990;2023-04-03T17:55:27;9.90;86.10
12111;DHT22;6119;52.372;8.990;2023-04-03T17:58:14;9.80;87.20
12111;DHT22;6119;52.372;8.990;2023-04-03T18:01:07;9.80;87.40
12111;DHT22;6119;52.372;8.990;2023-04-03T18:03:56;9.60;87.30
12111;DHT22;6119;52.372;8.990;2023-04-03T18:06:46;9.40;87.20
12111;DHT22;6119;52.372;8.990;2023-04-03T18:09:33;9.50;88.20
12111;DHT22;6119;52.372;8.990;2023-04-03T18:12:20;9.50;88.80
12111;DHT22;6119;52.372;8.990;2023-04-03T18:15:08;9.40;88.60
12111;DHT22;6119;52.372;8.990;2023-04-03T18:17:54;9.30;88.40
12111;DHT22;6119;52.372;8.990;2023-04-03T18:20:42;9.20;89.60
12111;DHT22;6119;52.372;8.990;2023-04-03T18:23:32;9.10;90.00